Time;durP1;ratioP1;P1;durP2;ratioP2;P2;SDS_P1;SDS_P2;PMS_P1;PMS_P2;Temp;Humidity;BMP_temperature;BMP_pressure;BME280_temperature;BME280_humidity;BME280_pressure;Samples;Min_cycle;Max_cycle;Signal;HPM_P1;HPM_P2
2022/01/19 00:01:31;;;;;;;;;;;;;;;-6.40;75.40;100118.60;1686181;85;21157;-76
2022/01/19 00:03:59;;;;;;;;;;;;;;;-6.44;75.95;100116.83;1689231;85;20121;-75
2022/01/19 00:06:28;;;;;;;;;;;;;;;-6.43;77.18;100121.66;1689537;85;20090;-75
2022/01/19 00:08:55;;;;;;;;;;;;;;;-6.45;77.01;100119.18;1689402;85;20101;-76
2022/01/19 00:11:22;;;;;;;;;;;;;;;-6.48;76.69;100130.75;1678655;85;20102;-76
2022/01/19 00:13:59;;;;;;;;;;;;;;;-6.48;77.37;100152.13;1673960;85;20094;-76
2022/01/19 00:16:32;;;;;;;;;;;;;;;-6.50;76.93;100157.66;1675080;85;20077;-76
2022/01/19 00:19:06;;;;;;;;;;;;;;;-6.52;76.22;100170.88;1685973;85;20145;-76
2022/01/19 00:21:33;;;;;;;;;;;;;;;-6.53;77.77;100167.89;1689408;84;20102;-77
2022/01/19 00:24:06;;;;;;;;;;;;;;;-6.53;77.43;100179.41;1689504;85;20106;-76
2022/01/19 00:26:54;;;;;;;;;;;;;;;-6.57;76.58;100176.80;1689046;85;23397;-75
2022/01/19 00:29:07;;;;;;;;;;;;;;;-6.59;77.38;100179.34;1691161;83;21657;-75
2022/01/19 00:31:35;;;;;;;;;;;;;;;-6.61;77.05;100178.70;1714929;83;20085;-76
2022/01/19 00:34:02;;;;;;;;;;;;;;;-6.63;77.28;100172.20;1690313;83;20073;-76
2022/01/19 00:36:32;;;;;;;;;;;;;;;-6.64;77.54;100165.21;1714877;83;20433;-76
2022/01/19 00:39:09;;;;;;;;;;;;;;;-6.66;77.81;100168.07;1714946;83;21147;-76
2022/01/19 00:41:37;;;;;;;;;;;;;;;-6.68;77.39;100163.42;1689759;83;20102;-75
2022/01/19 00:44:15;;;;;;;;;;;;;;;-6.71;77.50;100159.80;1690114;83;20436;-76
2022/01/19 00:46:41;;;;;;;;;;;;;;;-6.72;77.94;100162.66;1714216;83;20149;-75
2022/01/19 00:49:08;;;;;;;;;;;;;;;-6.74;77.53;100156.17;1714758;83;20074;-75
2022/01/19 00:51:36;;;;;;;;;;;;;;;-6.75;77.25;100165.20;1714765;83;21166;-75
2022/01/19 00:54:08;;;;;;;;;;;;;;;-6.75;77.53;100164.38;1714976;83;20105;-76
2022/01/19 00:56:36;;;;;;;;;;;;;;;-6.76;77.14;100174.22;1715032;83;20432;-75
2022/01/19 00:59:06;;;;;;;;;;;;;;;-6.77;77.06;100179.24;1689946;83;20077;-73
2022/01/19 01:01:45;;;;;;;;;;;;;;;-6.79;77.64;100183.94;1715089;83;20181;-73
2022/01/19 01:04:29;;;;;;;;;;;;;;;-6.79;77.87;100192.45;1715019;83;23281;-73
2022/01/19 01:06:44;;;;;;;;;;;;;;;-6.83;77.87;100181.33;1709836;83;20465;-73
2022/01/19 01:09:30;;;;;;;;;;;;;;;-6.85;78.83;100178.52;1689466;83;20157;-73
2022/01/19 01:11:59;;;;;;;;;;;;;;;-6.84;78.56;100179.67;1711489;83;20089;-73
2022/01/19 01:19:33;;;;;;;;;;;;;;;-6.86;79.24;100188.88;1692286;83;20117;-75
2022/01/19 01:22:01;;;;;;;;;;;;;;;-6.88;78.67;100190.41;1690005;83;20168;-74
2022/01/19 01:24:32;;;;;;;;;;;;;;;-6.91;78.99;100184.11;1714846;83;20097;-74
2022/01/19 01:27:02;;;;;;;;;;;;;;;-6.91;79.40;100185.44;1714473;83;20451;-74
2022/01/19 01:29:30;;;;;;;;;;;;;;;-6.91;79.46;100182.77;1708853;83;21155;-74
2022/01/19 01:31:59;;;;;;;;;;;;;;;-6.95;78.93;100176.19;1678751;85;20101;-74
2022/01/19 01:34:30;;;;;;;;;;;;;;;-6.96;79.82;100185.70;1666439;85;20102;-74
2022/01/19 01:36:58;;;;;;;;;;;;;;;-6.98;79.42;100189.90;1690053;85;20102;-74
2022/01/19 01:39:30;;;;;;;;;;;;;;;-7.00;79.45;100181.25;1679090;85;20122;-73
2022/01/19 01:42:01;;;;;;;;;;;;;;;-7.03;80.17;100185.13;1689658;84;20461;-74
2022/01/19 01:44:36;;;;;;;;;;;;;;;-7.04;79.51;100191.47;1677283;85;20086;-74
2022/01/19 01:47:05;;;;;;;;;;;;;;;-7.08;79.43;100182.18;1656680;85;20442;-73
2022/01/19 01:55:16;;;;;;;;;;;;;;;-7.12;80.08;100186.74;1689519;85;23174;-74
2022/01/19 01:57:46;;;;;;;;;;;;;;;-7.12;81.25;100182.73;1689292;84;20308;-74
2022/01/19 02:00:16;;;;;;;;;;;;;;;-7.12;81.25;100188.08;1689770;84;20122;-75
2022/01/19 02:02:51;;;;;;;;;;;;;;;-7.14;80.82;100190.09;1679219;85;20126;-75
2022/01/19 02:05:23;;;;;;;;;;;;;;;-7.16;80.92;100182.28;1689359;84;20102;-75
2022/01/19 02:08:10;;;;;;;;;;;;;;;-7.16;81.25;100190.80;1677603;85;20441;-74
2022/01/19 02:11:01;;;;;;;;;;;;;;;-7.17;80.82;100187.80;1678995;85;20102;-73
2022/01/19 02:21:45;;;;;;;;;;;;;;;-7.28;81.41;100179.76;1687726;85;21147;-74
2022/01/19 02:24:21;;;;;;;;;;;;;;;-7.29;81.95;100170.61;1688267;85;20101;-74
2022/01/19 02:27:10;;;;;;;;;;;;;;;-7.30;81.49;100168.44;1689208;84;20425;-74
2022/01/19 02:40:33;;;;;;;;;;;;;;;-7.43;83.42;100174.42;1715069;83;20097;-74
2022/01/19 02:51:08;;;;;;;;;;;;;;;-7.58;82.91;100174.95;1690517;83;20121;-75
2022/01/19 02:53:37;;;;;;;;;;;;;;;-7.62;83.15;100168.84;1667892;83;20428;-72
2022/01/19 02:56:24;;;;;;;;;;;;;;;-7.63;83.84;100165.84;1714995;83;20134;-72
2022/01/19 02:58:58;;;;;;;;;;;;;;;-7.68;83.70;100167.73;1688574;83;20146;-72
2022/01/19 03:09:29;;;;;;;;;;;;;;;-7.78;84.83;100143.17;1678364;85;21953;-73
2022/01/19 03:11:57;;;;;;;;;;;;;;;-7.79;85.78;100138.34;1678170;85;20099;-73
2022/01/19 03:14:26;;;;;;;;;;;;;;;-7.80;85.49;100142.02;1714524;83;21141;-73
2022/01/19 03:16:57;;;;;;;;;;;;;;;-7.83;85.54;100136.23;1690115;83;20456;-73
2022/01/19 03:19:26;;;;;;;;;;;;;;;-7.84;86.49;100138.06;1715324;83;20101;-81
2022/01/19 03:21:54;;;;;;;;;;;;;;;-7.86;86.18;100132.59;1713640;83;20117;-80
2022/01/19 03:24:27;;;;;;;;;;;;;;;-7.89;86.31;100132.45;1714935;83;20101;-76
2022/01/19 03:26:54;;;;;;;;;;;;;;;-7.90;86.63;100135.30;1713779;83;21157;-75
2022/01/19 03:29:32;;;;;;;;;;;;;;;-7.92;86.95;100123.99;1693303;83;20129;-74
2022/01/19 03:32:04;;;;;;;;;;;;;;;-7.92;88.18;100120.00;1690635;83;20483;-76
2022/01/19 03:34:32;;;;;;;;;;;;;;;-7.89;88.91;100124.45;1688150;83;20136;-75
2022/01/19 03:37:08;;;;;;;;;;;;;;;-7.88;88.52;100125.28;1688759;83;20128;-75
2022/01/19 03:39:35;;;;;;;;;;;;;;;-7.95;88.04;100130.52;1714131;83;21777;-74
2022/01/19 03:42:15;;;;;;;;;;;;;;;-7.97;88.54;100131.70;1702309;83;20458;-75
2022/01/19 03:44:47;;;;;;;;;;;;;;;-7.99;88.83;100139.88;1714380;83;20128;-74
2022/01/19 03:47:20;;;;;;;;;;;;;;;-8.01;88.82;100149.39;1716904;82;20177;-74
2022/01/19 03:49:48;;;;;;;;;;;;;;;-8.05;88.83;100148.09;1690817;84;20091;-74
2022/01/19 03:52:23;;;;;;;;;;;;;;;-8.06;89.61;100149.61;1714922;83;21155;-74
2022/01/19 03:54:53;;;;;;;;;;;;;;;-8.07;89.41;100159.44;1690675;83;20481;-74
2022/01/19 03:57:21;;;;;;;;;;;;;;;-8.09;89.42;100160.16;1689217;83;20112;-77
2022/01/19 04:00:00;;;;;;;;;;;;;;;-8.09;90.05;100158.81;1714168;83;20144;-75
2022/01/19 04:02:33;;;;;;;;;;;;;;;-8.08;90.18;100151.12;1714874;83;20452;-74
2022/01/19 04:05:05;;;;;;;;;;;;;;;-8.06;90.39;100156.27;1714386;83;21307;-75
2022/01/19 04:07:31;;;;;;;;;;;;;;;-8.02;91.30;100162.89;1690453;83;20175;-76
2022/01/19 04:10:04;;;;;;;;;;;;;;;-8.00;91.17;100155.04;1714839;83;20180;-77
2022/01/19 04:12:43;;;;;;;;;;;;;;;-7.99;91.03;100159.36;1715017;83;20117;-73
2022/01/19 04:15:03;;;;;;;;;;;;;;;-7.95;92.03;100166.99;1713368;83;20129;-74
2022/01/19 04:17:34;;;;;;;;;;;;;;;-7.89;92.37;100155.61;1714897;83;21147;-74
2022/01/19 04:20:03;;;;;;;;;;;;;;;-7.87;92.65;100164.25;1714706;83;20167;-73
2022/01/19 04:22:30;;;;;;;;;;;;;;;-7.82;93.11;100153.88;1714865;83;20491;-74
2022/01/19 04:25:07;;;;;;;;;;;;;;;-7.78;92.44;100160.50;1690297;82;20164;-73
2022/01/19 04:27:43;;;;;;;;;;;;;;;-7.81;91.70;100155.03;1720801;82;20224;-73
2022/01/19 04:30:12;;;;;;;;;;;;;;;-7.87;91.57;100169.08;1689529;83;20112;-73
2022/01/19 04:35:32;;;;;;;;;;;;;;;-7.87;92.44;100178.41;1741222;82;20458;-71
2022/01/19 05:05:26;;;;;;;;;;;;;;;-8.15;93.67;100192.84;1741655;82;20189;-77
2022/01/19 05:13:26;;;;;;;;;;;;;;;-8.16;93.99;100177.86;1742206;82;20125;-75
2022/01/19 05:16:00;;;;;;;;;;;;;;;-8.14;94.42;100185.17;1741795;82;20126;-77
2022/01/19 05:18:30;;;;;;;;;;;;;;;-8.15;94.04;100187.52;1742305;82;20190;-74
2022/01/19 05:20:58;;;;;;;;;;;;;;;-8.16;94.41;100184.52;1742324;82;20461;-72
2022/01/19 05:23:41;;;;;;;;;;;;;;;-8.16;94.75;100188.52;1738830;82;21126;-73
2022/01/19 05:26:14;;;;;;;;;;;;;;;-8.15;94.59;100186.68;1741736;82;20110;-73
2022/01/19 05:28:40;;;;;;;;;;;;;;;-8.15;95.13;100186.68;1717376;82;20161;-73
2022/01/19 05:31:10;;;;;;;;;;;;;;;-8.12;95.73;100187.16;1717816;82;20141;-72
2022/01/19 05:33:43;;;;;;;;;;;;;;;-8.11;95.27;100186.65;1745296;82;20121;-73
2022/01/19 05:36:07;;;;;;;;;;;;;;;-8.13;95.19;100195.33;1745715;82;22020;-72
2022/01/19 05:39:08;;;;;;;;;;;;;;;-8.12;95.68;100195.14;1746201;82;20122;-73
2022/01/19 05:41:43;;;;;;;;;;;;;;;-8.12;95.47;100191.15;1746236;82;20145;-74
2022/01/19 05:44:16;;;;;;;;;;;;;;;-8.14;95.35;100183.02;1719324;82;20110;-73
2022/01/19 05:46:52;;;;;;;;;;;;;;;-8.13;95.97;100186.83;1718868;82;20193;-74
2022/01/19 05:49:24;;;;;;;;;;;;;;;-8.12;95.86;100179.16;1745644;82;21164;-74
2022/01/19 05:51:54;;;;;;;;;;;;;;;-8.10;95.85;100181.14;1745948;82;20145;-74
2022/01/19 05:54:21;;;;;;;;;;;;;;;-8.06;96.40;100179.74;1746142;82;20449;-77
2022/01/19 05:56:53;;;;;;;;;;;;;;;-8.03;96.53;100164.73;1742085;82;20464;-75
2022/01/19 05:59:22;;;;;;;;;;;;;;;-7.99;96.42;100171.86;1745071;82;20138;-75
2022/01/19 06:01:58;;;;;;;;;;;;;;;-7.93;96.79;100176.47;1719003;82;20543;-75
2022/01/19 06:04:27;;;;;;;;;;;;;;;-7.88;96.71;100181.25;1716000;82;20126;-74
2022/01/19 06:06:56;;;;;;;;;;;;;;;-7.85;96.57;100186.22;1736710;82;20190;-75
2022/01/19 06:12:15;;;;;;;;;;;;;;;-7.75;96.65;100194.80;1687293;85;20486;-73
2022/01/19 06:14:43;;;;;;;;;;;;;;;-7.70;96.41;100197.23;1699622;84;21074;-72
2022/01/19 06:17:12;;;;;;;;;;;;;;;-7.64;96.59;100207.68;1707654;83;20125;-73
2022/01/19 06:20:01;;;;;;;;;;;;;;;-7.56;97.10;100208.93;1706232;82;20152;-72
2022/01/19 06:22:17;;;;;;;;;;;;;;;-7.51;96.66;100210.52;1682031;84;20091;-72
2022/01/19 06:24:50;;;;;;;;;;;;;;;-7.44;97.33;100214.61;1702879;82;20124;-73
2022/01/19 06:27:26;;;;;;;;;;;;;;;-7.34;97.36;100201.33;1704930;83;21784;-74
2022/01/19 06:29:56;;;;;;;;;;;;;;;-7.26;97.08;100211.59;1714805;83;20465;-74
2022/01/19 06:32:25;;;;;;;;;;;;;;;-7.19;97.33;100205.33;1695775;84;20207;-73
2022/01/19 06:34:53;;;;;;;;;;;;;;;-7.10;97.51;100215.41;1698183;84;20438;-75
2022/01/19 06:37:24;;;;;;;;;;;;;;;-7.08;96.65;100204.86;1691658;84;20150;-73
2022/01/19 06:39:54;;;;;;;;;;;;;;;-7.04;96.49;100207.48;1711864;82;23216;-74
2022/01/19 06:42:29;;;;;;;;;;;;;;;-6.97;96.96;100210.75;1711853;82;20422;-73
2022/01/19 06:45:02;;;;;;;;;;;;;;;-6.92;96.61;100209.14;1709399;83;20075;-74
2022/01/19 06:47:33;;;;;;;;;;;;;;;-6.86;96.33;100218.25;1682101;84;20105;-73
2022/01/19 06:50:07;;;;;;;;;;;;;;;-6.79;96.64;100213.31;1695473;84;20435;-74
2022/01/19 06:52:38;;;;;;;;;;;;;;;-6.69;96.35;100201.00;1701325;83;20666;-74
2022/01/19 06:55:07;;;;;;;;;;;;;;;-6.58;96.06;100203.18;1724441;82;20095;-75
2022/01/19 06:57:38;;;;;;;;;;;;;;;-6.47;95.99;100204.02;1741635;81;20100;-81
2022/01/19 07:00:23;;;;;;;;;;;;;;;-6.35;95.82;100205.66;1741750;82;20107;-77
2022/01/19 07:02:55;;;;;;;;;;;;;;;-6.26;95.31;100195.16;1695416;82;20145;-76
2022/01/19 07:05:44;;;;;;;;;;;;;;;-6.17;95.56;100197.20;1700750;82;20133;-72
2022/01/19 07:08:33;;;;;;;;;;;;;;;-6.08;94.95;100193.37;1741356;82;20494;-74
2022/01/19 07:11:01;;;;;;;;;;;;;;;-6.03;94.55;100190.45;1740975;82;20088;-73
2022/01/19 07:13:29;;;;;;;;;;;;;;;-6.01;94.73;100192.42;1741515;82;37788;-69
2022/01/19 07:15:56;;;;;;;;;;;;;;;-5.96;94.53;100189.68;1741855;82;20439;-70
2022/01/19 07:18:23;;;;;;;;;;;;;;;-5.91;94.51;100189.93;1740770;81;21099;-69
2022/01/19 07:20:50;;;;;;;;;;;;;;;-5.87;94.72;100192.50;1738274;82;20127;-69
2022/01/19 07:23:18;;;;;;;;;;;;;;;-5.82;94.93;100196.76;1741596;81;20423;-70
2022/01/19 07:25:44;;;;;;;;;;;;;;;-5.79;94.27;100192.36;1741828;82;20123;-70
2022/01/19 07:28:11;;;;;;;;;;;;;;;-5.79;93.88;100199.87;1741561;82;20100;-70
2022/01/19 07:30:39;;;;;;;;;;;;;;;-5.78;94.02;100198.03;1741541;81;21045;-71
2022/01/19 07:33:08;;;;;;;;;;;;;;;-5.74;94.10;100203.27;1744420;81;20407;-69
2022/01/19 07:35:35;;;;;;;;;;;;;;;-5.71;94.04;100197.03;1744651;82;20445;-69
2022/01/19 07:38:01;;;;;;;;;;;;;;;-5.67;94.25;100194.80;1744399;82;20198;-69
2022/01/19 07:40:27;;;;;;;;;;;;;;;-5.65;92.95;100194.09;1744493;81;20123;-76
2022/01/19 07:42:54;;;;;;;;;;;;;;;-5.66;92.60;100188.42;1744493;82;21045;-77
2022/01/19 07:45:41;;;;;;;;;;;;;;;-5.67;93.54;100176.89;1713887;83;20086;-76
2022/01/19 07:48:26;;;;;;;;;;;;;;;-5.62;93.35;100180.84;1714516;83;20412;-75
2022/01/19 07:51:03;;;;;;;;;;;;;;;-5.60;93.26;100180.13;1710892;82;20156;-75
2022/01/19 07:53:31;;;;;;;;;;;;;;;-5.54;93.63;100170.81;1744465;82;20127;-75
2022/01/19 07:55:59;;;;;;;;;;;;;;;-5.48;93.21;100175.89;1744636;81;21160;-77
2022/01/19 07:58:33;;;;;;;;;;;;;;;-5.45;92.94;100172.31;1744269;82;20437;-72
2022/01/19 08:01:11;;;;;;;;;;;;;;;-5.42;93.30;100173.77;1744710;81;20179;-72
2022/01/19 08:03:45;;;;;;;;;;;;;;;-5.37;93.33;100166.80;1744391;82;20072;-72
2022/01/19 08:06:14;;;;;;;;;;;;;;;-5.33;92.55;100160.03;1744587;81;20131;-77
2022/01/19 08:08:42;;;;;;;;;;;;;;;-5.30;91.80;100172.19;1744822;82;21099;-76
2022/01/19 08:11:08;;;;;;;;;;;;;;;-5.29;91.90;100169.83;1744733;81;20083;-71
2022/01/19 08:13:36;;;;;;;;;;;;;;;-5.29;91.12;100170.34;1744596;81;20415;-79
2022/01/19 08:16:04;;;;;;;;;;;;;;;-5.30;90.77;100164.67;1744941;81;20128;-78
2022/01/19 08:18:30;;;;;;;;;;;;;;;-5.27;91.63;100161.61;1744919;81;20134;-79
2022/01/19 08:20:57;;;;;;;;;;;;;;;-5.23;91.35;100159.67;1744750;82;21130;-78
2022/01/19 08:23:26;;;;;;;;;;;;;;;-5.19;90.39;100158.73;1744768;82;20447;-81
2022/01/19 08:25:54;;;;;;;;;;;;;;;-5.13;91.32;100157.94;1745029;81;20095;-80
2022/01/19 08:28:23;;;;;;;;;;;;;;;-5.04;91.35;100156.75;1744222;81;20118;-78
2022/01/19 08:30:50;;;;;;;;;;;;;;;-4.96;89.86;100141.84;1744676;81;20143;-79
2022/01/19 08:33:19;;;;;;;;;;;;;;;-4.87;90.29;100128.59;1719553;81;21146;-72
2022/01/19 08:35:53;;;;;;;;;;;;;;;-4.77;89.28;100134.39;1718450;82;20112;-71
2022/01/19 08:38:29;;;;;;;;;;;;;;;-4.71;88.87;100130.08;1718527;82;20076;-70
2022/01/19 08:41:02;;;;;;;;;;;;;;;-4.67;88.32;100125.45;1717939;82;20084;-74
2022/01/19 08:43:32;;;;;;;;;;;;;;;-4.61;88.85;100133.17;1718342;83;20115;-74
2022/01/19 08:45:59;;;;;;;;;;;;;;;-4.49;88.30;100133.40;1717100;83;21144;-70
2022/01/19 08:48:27;;;;;;;;;;;;;;;-4.32;88.21;100127.45;1718889;82;20099;-72
2022/01/19 08:51:08;;;;;;;;;;;;;;;-4.13;87.60;100116.94;1718528;82;20131;-75
2022/01/19 08:53:36;;;;;;;;;;;;;;;-3.63;86.73;100126.68;1718999;82;20380;-72
2022/01/19 08:56:08;;;;;;;;;;;;;;;-2.95;86.18;100117.14;1713856;82;20478;-74
2022/01/19 08:58:34;;;;;;;;;;;;;;;-2.20;80.34;100123.46;1718713;82;21476;-79
2022/01/19 09:01:02;;;;;;;;;;;;;;;-1.97;78.89;100123.39;1718215;82;20100;-68
2022/01/19 09:03:30;;;;;;;;;;;;;;;-2.11;79.51;100122.16;1718524;83;20091;-69
2022/01/19 09:05:56;;;;;;;;;;;;;;;-2.25;79.08;100130.02;1706293;83;20084;-68
2022/01/19 09:08:23;;;;;;;;;;;;;;;-2.41;78.96;100132.73;1692008;83;20081;-70
2022/01/19 09:10:52;;;;;;;;;;;;;;;-2.61;78.50;100136.59;1690783;83;21139;-69
2022/01/19 09:13:17;;;;;;;;;;;;;;;-2.75;79.18;100132.63;1703152;83;20116;-71
2022/01/19 09:15:44;;;;;;;;;;;;;;;-2.80;78.76;100127.06;1718295;83;20111;-72
2022/01/19 09:18:11;;;;;;;;;;;;;;;-2.87;78.01;100128.96;1718302;82;20622;-71
2022/01/19 09:20:37;;;;;;;;;;;;;;;-2.97;78.23;100119.22;1718544;83;20443;-70
2022/01/19 09:23:05;;;;;;;;;;;;;;;-3.03;79.00;100118.73;1718271;82;20088;-71
2022/01/19 09:25:32;;;;;;;;;;;;;;;-3.05;78.21;100114.09;1718239;83;20084;-70
2022/01/19 09:27:59;;;;;;;;;;;;;;;-3.00;78.89;100108.90;1718568;83;20115;-70
2022/01/19 09:30:26;;;;;;;;;;;;;;;-2.88;78.83;100098.28;1718230;82;20176;-71
2022/01/19 09:33:06;;;;;;;;;;;;;;;-2.77;77.86;100099.77;1718375;82;20072;-72
2022/01/19 09:35:25;;;;;;;;;;;;;;;-2.69;77.88;100090.11;1719177;82;21154;-71
2022/01/19 09:37:52;;;;;;;;;;;;;;;-2.61;79.40;100087.68;1718406;83;20590;-68
2022/01/19 09:40:20;;;;;;;;;;;;;;;-2.56;76.71;100077.10;1708558;82;20517;-69
2022/01/19 09:42:47;;;;;;;;;;;;;;;-2.58;76.19;100070.30;1703221;83;20148;-70
2022/01/19 09:45:13;;;;;;;;;;;;;;;-2.57;77.75;100066.56;1706473;83;20084;-71
2022/01/19 09:47:40;;;;;;;;;;;;;;;-2.51;78.16;100071.08;1714933;83;21620;-70
2022/01/19 09:50:07;;;;;;;;;;;;;;;-2.41;78.02;100070.89;1702213;83;20120;-69
2022/01/19 09:52:33;;;;;;;;;;;;;;;-2.34;78.23;100070.33;1698911;83;20150;-72
2022/01/19 09:54:59;;;;;;;;;;;;;;;-2.28;77.01;100071.28;1696387;83;20115;-69
2022/01/19 09:57:26;;;;;;;;;;;;;;;-2.27;76.31;100070.77;1709011;83;20100;-69
2022/01/19 09:59:52;;;;;;;;;;;;;;;-2.29;75.96;100071.50;1701181;83;22137;-68
2022/01/19 10:02:18;;;;;;;;;;;;;;;-2.37;75.96;100067.25;1704461;83;20086;-71
2022/01/19 10:04:47;;;;;;;;;;;;;;;-2.43;77.09;100061.40;1701753;82;20086;-70
2022/01/19 10:07:17;;;;;;;;;;;;;;;-2.42;77.20;100061.19;1703398;82;20095;-69
2022/01/19 10:09:53;;;;;;;;;;;;;;;-2.44;76.59;100055.72;1704836;83;20168;-69
2022/01/19 10:17:57;;;;;;;;;;;;;;;-2.53;77.90;100049.78;1703477;83;20106;-73
2022/01/19 10:20:23;;;;;;;;;;;;;;;-2.54;77.97;100048.14;1701183;83;20089;-73
2022/01/19 10:22:50;;;;;;;;;;;;;;;-2.55;78.22;100038.95;1704193;83;20116;-78
2022/01/19 10:25:17;;;;;;;;;;;;;;;-2.57;78.21;100037.83;1703948;83;21013;-74
2022/01/19 10:27:45;;;;;;;;;;;;;;;-2.54;78.96;100036.56;1701687;83;20110;-76
2022/01/19 10:30:22;;;;;;;;;;;;;;;-2.52;78.69;100033.96;1703987;82;20112;-77
2022/01/19 10:32:55;;;;;;;;;;;;;;;-2.48;78.75;100038.38;1712558;82;20114;-78
2022/01/19 10:35:38;;;;;;;;;;;;;;;-2.44;79.83;100035.55;1727605;82;20160;-76
2022/01/19 10:38:18;;;;;;;;;;;;;;;-2.43;79.30;100042.58;1730891;82;21933;-77
2022/01/19 10:41:04;;;;;;;;;;;;;;;-2.44;79.60;100043.63;1730639;82;20103;-74
2022/01/19 10:43:35;;;;;;;;;;;;;;;-2.45;80.99;100043.31;1728602;82;20133;-73
2022/01/19 10:46:21;;;;;;;;;;;;;;;-2.44;81.95;100039.07;1727866;81;21012;-75
2022/01/19 10:48:47;;;;;;;;;;;;;;;-2.41;82.37;100043.19;1709665;82;20151;-74
2022/01/19 10:51:17;;;;;;;;;;;;;;;-2.38;83.82;100044.09;1714910;83;21046;-74
2022/01/19 10:53:45;;;;;;;;;;;;;;;-2.31;85.03;100042.69;1722976;82;20134;-73
2022/01/19 10:56:24;;;;;;;;;;;;;;;-2.30;84.50;100020.92;1733207;82;20203;-73
2022/01/19 10:58:56;;;;;;;;;;;;;;;-2.32;85.68;100020.36;1711934;83;20522;-73
2022/01/19 11:01:44;;;;;;;;;;;;;;;-2.37;85.75;100009.44;1714752;83;20094;-75
2022/01/19 11:04:28;;;;;;;;;;;;;;;-2.42;86.25;100016.82;1710199;83;21161;-75
2022/01/19 11:06:58;;;;;;;;;;;;;;;-2.49;87.21;100016.05;1714973;83;20094;-75
2022/01/19 11:09:27;;;;;;;;;;;;;;;-2.52;87.67;100011.62;1715254;83;20109;-76
2022/01/19 11:11:55;;;;;;;;;;;;;;;-2.57;88.14;99988.61;1715029;83;20098;-75
2022/01/19 11:14:24;;;;;;;;;;;;;;;-2.59;89.92;100013.02;1714928;83;20118;-75
2022/01/19 11:16:51;;;;;;;;;;;;;;;-2.58;90.17;100003.92;1715051;83;21116;-75
2022/01/19 11:19:20;;;;;;;;;;;;;;;-2.52;90.72;99998.19;1715048;83;20416;-75
2022/01/19 11:22:05;;;;;;;;;;;;;;;-2.41;91.67;100008.23;1714895;83;20085;-73
2022/01/19 11:24:52;;;;;;;;;;;;;;;-2.20;91.90;100009.67;1715011;83;20106;-74
2022/01/19 11:27:19;;;;;;;;;;;;;;;-1.93;91.38;100016.97;1715010;83;20149;-74
2022/01/19 11:29:45;;;;;;;;;;;;;;;-1.82;90.10;100006.29;1715068;83;21912;-74
2022/01/19 11:32:18;;;;;;;;;;;;;;;-1.84;89.79;100002.17;1688362;83;20097;-74
2022/01/19 11:34:49;;;;;;;;;;;;;;;-1.95;89.77;99987.59;1689305;84;20162;-74
2022/01/19 11:37:18;;;;;;;;;;;;;;;-2.08;89.94;99979.66;1689643;84;20506;-73
2022/01/19 11:40:01;;;;;;;;;;;;;;;-2.20;90.66;99972.84;1689523;84;20118;-73
2022/01/19 11:42:27;;;;;;;;;;;;;;;-2.25;91.35;99981.27;1685305;84;21815;-74
2022/01/19 11:44:54;;;;;;;;;;;;;;;-2.22;92.19;99977.62;1689579;85;20450;-73
2022/01/19 11:47:23;;;;;;;;;;;;;;;-2.15;92.29;99978.37;1689677;85;20101;-73
2022/01/19 11:49:59;;;;;;;;;;;;;;;-2.11;92.29;99962.09;1689484;85;20599;-74
2022/01/19 11:52:32;;;;;;;;;;;;;;;-2.03;92.45;99965.02;1689749;85;20098;-74
2022/01/19 11:55:22;;;;;;;;;;;;;;;-1.90;93.41;99965.39;1676849;84;21169;-74
2022/01/19 11:57:50;;;;;;;;;;;;;;;-1.73;92.15;99969.09;1689523;85;20094;-74
2022/01/19 12:00:22;;;;;;;;;;;;;;;-1.57;90.81;99965.80;1689506;85;20098;-74
2022/01/19 12:02:51;;;;;;;;;;;;;;;-1.42;91.25;99947.37;1689579;85;20097;-74
2022/01/19 12:05:21;;;;;;;;;;;;;;;-1.26;90.14;99939.70;1689615;85;20098;-74
2022/01/19 12:07:56;;;;;;;;;;;;;;;-1.14;90.20;99935.97;1689410;84;21178;-74
2022/01/19 12:10:37;;;;;;;;;;;;;;;-1.03;89.74;99942.45;1689865;85;20086;-73
2022/01/19 12:19:14;;;;;;;;;;;;;;;-0.29;88.81;99918.06;1689700;85;20094;-74
2022/01/19 12:21:58;;;;;;;;;;;;;;;0.36;88.42;99921.03;1698806;83;21146;-73
2022/01/19 12:24:38;;;;;;;;;;;;;;;0.93;86.93;99915.88;1699539;83;20155;-74
2022/01/19 12:27:09;;;;;;;;;;;;;;;1.51;86.61;99915.19;1689555;85;20124;-75
2022/01/19 12:29:38;;;;;;;;;;;;;;;1.85;87.44;99912.69;1689638;85;20400;-75
2022/01/19 12:32:20;;;;;;;;;;;;;;;1.91;84.59;99905.45;1689523;85;20113;-74
2022/01/19 12:35:10;;;;;;;;;;;;;;;1.82;81.51;99903.71;1714573;83;21068;-74
2022/01/19 12:37:48;;;;;;;;;;;;;;;1.57;82.04;99899.31;1715263;83;20156;-73
2022/01/19 12:40:25;;;;;;;;;;;;;;;1.36;82.60;99907.65;1714983;83;20085;-74
2022/01/19 12:42:58;;;;;;;;;;;;;;;1.17;85.99;99911.13;1714965;82;20077;-74
2022/01/19 12:45:26;;;;;;;;;;;;;;;1.11;87.35;99918.89;1722247;82;20102;-74
2022/01/19 12:48:00;;;;;;;;;;;;;;;1.11;87.10;99922.13;1727958;82;21146;-74
2022/01/19 12:50:31;;;;;;;;;;;;;;;1.01;85.79;99924.66;1727916;82;20092;-72
2022/01/19 12:53:03;;;;;;;;;;;;;;;0.92;87.58;99922.88;1730131;82;20099;-74
2022/01/19 12:55:35;;;;;;;;;;;;;;;0.89;86.74;99915.27;1730556;82;20167;-73
2022/01/19 12:58:05;;;;;;;;;;;;;;;0.83;84.98;99918.41;1729381;82;20165;-73
2022/01/19 13:00:32;;;;;;;;;;;;;;;0.71;88.81;99915.47;1717257;82;21205;-73
2022/01/19 13:02:59;;;;;;;;;;;;;;;0.59;88.26;99921.73;1729768;81;20131;-73
2022/01/19 13:05:29;;;;;;;;;;;;;;;0.46;89.76;99919.88;1730211;82;20117;-73
2022/01/19 13:07:58;;;;;;;;;;;;;;;0.30;88.53;99927.68;1727537;82;20141;-74
2022/01/19 13:10:45;;;;;;;;;;;;;;;0.14;88.51;99918.16;1728023;81;20085;-73
2022/01/19 13:13:11;;;;;;;;;;;;;;;0.01;90.12;99928.68;1728272;82;21180;-72
2022/01/19 13:15:42;;;;;;;;;;;;;;;-0.12;89.58;99927.61;1731339;82;20250;-73
2022/01/19 13:18:09;;;;;;;;;;;;;;;-0.29;89.18;99923.98;1729086;82;20154;-73
2022/01/19 13:20:35;;;;;;;;;;;;;;;-0.43;90.39;99922.88;1727865;82;20156;-74
2022/01/19 13:23:04;;;;;;;;;;;;;;;-0.53;90.55;99925.86;1727783;82;20094;-73
2022/01/19 13:25:32;;;;;;;;;;;;;;;-0.59;92.84;99921.44;1729101;81;20918;-74
2022/01/19 13:28:01;;;;;;;;;;;;;;;-0.66;91.11;99910.76;1730663;82;20418;-73
2022/01/19 13:30:29;;;;;;;;;;;;;;;-0.86;89.67;99904.88;1728708;82;20101;-74
2022/01/19 13:32:56;;;;;;;;;;;;;;;-1.00;92.51;99910.47;1725478;82;20174;-73
2022/01/19 13:35:23;;;;;;;;;;;;;;;-1.05;94.40;99902.78;1698097;83;20200;-75
2022/01/19 13:37:58;;;;;;;;;;;;;;;-1.08;94.64;99903.25;1699632;83;21865;-73
2022/01/19 13:40:26;;;;;;;;;;;;;;;-1.13;96.11;99889.64;1698891;83;20100;-73
2022/01/19 13:42:59;;;;;;;;;;;;;;;-1.15;95.99;99896.61;1698952;83;20166;-74
2022/01/19 13:45:38;;;;;;;;;;;;;;;-1.23;95.69;99897.50;1695039;83;20397;-72
2022/01/19 13:50:45;;;;;;;;;;;;;;;-1.36;97.55;99899.33;1704342;83;21155;-73
2022/01/19 13:53:12;;;;;;;;;;;;;;;-1.41;97.84;99891.64;1699039;83;20122;-74
2022/01/19 13:55:40;;;;;;;;;;;;;;;-1.47;97.27;99888.52;1693585;83;20414;-74
2022/01/19 13:58:12;;;;;;;;;;;;;;;-1.52;98.08;99879.78;1685756;85;20119;-74
2022/01/19 14:00:55;;;;;;;;;;;;;;;-1.57;97.67;99878.30;1686086;85;20088;-75
2022/01/19 14:03:23;;;;;;;;;;;;;;;-1.63;98.52;99877.86;1658790;85;21074;-74
2022/01/19 14:05:51;;;;;;;;;;;;;;;-1.66;99.80;99881.83;1685967;83;20100;-69
2022/01/19 14:08:32;;;;;;;;;;;;;;;-1.66;100.00;99879.14;1685689;84;20116;-69
2022/01/19 14:11:00;;;;;;;;;;;;;;;-1.67;100.00;99873.45;1686186;84;20135;-68
2022/01/19 14:13:32;;;;;;;;;;;;;;;-1.71;100.00;99869.58;1660501;85;20420;-67
2022/01/19 14:16:25;;;;;;;;;;;;;;;-1.72;100.00;99870.63;1685849;85;21162;-69
2022/01/19 14:19:10;;;;;;;;;;;;;;;-1.75;100.00;99866.25;1685780;85;20446;-69
2022/01/19 14:22:03;;;;;;;;;;;;;;;-1.77;100.00;99868.35;1660526;85;20454;-69
2022/01/19 14:24:57;;;;;;;;;;;;;;;-1.79;100.00;99863.20;1685781;84;20092;-69
2022/01/19 14:27:27;;;;;;;;;;;;;;;-1.79;100.00;99859.16;1686098;85;20415;-69
2022/01/19 14:30:02;;;;;;;;;;;;;;;-1.79;100.00;99858.34;1685954;85;21033;-69
2022/01/19 14:32:38;;;;;;;;;;;;;;;-1.80;100.00;99854.83;1684753;85;20451;-70
2022/01/19 14:35:33;;;;;;;;;;;;;;;-1.79;100.00;99847.58;1710455;83;20101;-70
2022/01/19 14:38:12;;;;;;;;;;;;;;;-1.80;100.00;99852.66;1714953;83;20606;-70
2022/01/19 14:41:00;;;;;;;;;;;;;;;-1.79;100.00;99844.88;1715150;83;20440;-69
2022/01/19 14:43:38;;;;;;;;;;;;;;;-1.82;100.00;99844.81;1715032;83;21085;-69